sensor_id;sensor_type;location;lat;lon;timestamp;pressure;altitude;pressure_sealevel;temperature;humidity
79639;BME280;69114;49.108;8.280;2023-11-21T00:01:44;99774.34;;;7.61;100.00
79639;BME280;69114;49.108;8.280;2023-11-21T00:04:09;99768.81;;;7.61;100.00
79639;BME280;69114;49.108;8.280;2023-11-21T00:06:34;99772.72;;;7.60;100.00
79639;BME280;69114;49.108;8.280;2023-11-21T00:09:00;99767.47;;;7.59;100.00
79639;BME280;69114;49.108;8.280;2023-11-21T00:11:25;99772.81;;;7.55;100.00
79639;BME280;69114;49.108;8.280;2023-11-21T00:13:51;99766.44;;;7.55;100.00
79639;BME280;69114;49.108;8.280;2023-11-21T00:16:16;99764.19;;;7.57;100.00
79639;BME280;69114;49.108;8.280;2023-11-21T00:18:42;99765.00;;;7.57;100.00
79639;BME280;69114;49.108;8.280;2023-11-21T00:21:08;99763.06;;;7.58;100.00
79639;BME280;69114;49.108;8.280;2023-11-21T00:23:34;99762.25;;;7.57;100.00
79639;BME280;69114;49.108;8.280;2023-11-21T00:25:59;99753.59;;;7.59;100.00
79639;BME280;69114;49.108;8.280;2023-11-21T00:28:26;99764.69;;;7.59;100.00
79639;BME280;69114;49.108;8.280;2023-11-21T00:30:51;99761.63;;;7.60;100.00
79639;BME280;69114;49.108;8.280;2023-11-21T00:33:16;99767.47;;;7.59;100.00
79639;BME280;69114;49.108;8.280;2023-11-21T00:35:42;99757.72;;;7.61;100.00
79639;BME280;69114;49.108;8.280;2023-11-21T00:38:07;99765.50;;;7.59;100.00
79639;BME280;69114;49.108;8.280;2023-11-21T00:40:33;99757.72;;;7.61;100.00
79639;BME280;69114;49.108;8.280;2023-11-21T00:42:59;99754.63;;;7.63;100.00
79639;BME280;69114;49.108;8.280;2023-11-21T00:45:24;99760.19;;;7.63;100.00
79639;BME280;69114;49.108;8.280;2023-11-21T00:47:50;99759.38;;;7.62;100.00
79639;BME280;69114;49.108;8.280;2023-11-21T00:50:15;99761.22;;;7.67;100.00
79639;BME280;69114;49.108;8.280;2023-11-21T00:52:40;99758.13;;;7.68;100.00
79639;BME280;69114;49.108;8.280;2023-11-21T00:55:06;99755.34;;;7.68;100.00
79639;BME280;69114;49.108;8.280;2023-11-21T00:57:33;99763.66;;;7.68;100.00
79639;BME280;69114;49.108;8.280;2023-11-21T00:59:58;99751.47;;;7.69;100.00
79639;BME280;69114;49.108;8.280;2023-11-21T01:02:23;99751.97;;;7.72;100.00
79639;BME280;69114;49.108;8.280;2023-11-21T01:04:50;99755.25;;;7.74;100.00
79639;BME280;69114;49.108;8.280;2023-11-21T01:07:15;99759.16;;;7.73;100.00
79639;BME280;69114;49.108;8.280;2023-11-21T01:09:41;99763.66;;;7.68;100.00
79639;BME280;69114;49.108;8.280;2023-11-21T01:12:06;99752.09;;;7.66;100.00
79639;BME280;69114;49.108;8.280;2023-11-21T01:14:32;99754.25;;;7.69;100.00
79639;BME280;69114;49.108;8.280;2023-11-21T01:16:57;99763.66;;;7.68;100.00
79639;BME280;69114;49.108;8.280;2023-11-21T01:19:22;99772.19;;;7.72;100.00
79639;BME280;69114;49.108;8.280;2023-11-21T01:21:48;99761.66;;;7.74;100.00
79639;BME280;69114;49.108;8.280;2023-11-21T01:24:14;99774.66;;;7.74;100.00
79639;BME280;69114;49.108;8.280;2023-11-21T01:26:39;99784.75;;;7.69;100.00
79639;BME280;69114;49.108;8.280;2023-11-21T01:29:05;99781.34;;;7.73;100.00
79639;BME280;69114;49.108;8.280;2023-11-21T01:31:30;99789.16;;;7.70;100.00
79639;BME280;69114;49.108;8.280;2023-11-21T01:33:56;99787.41;;;7.75;100.00
79639;BME280;69114;49.108;8.280;2023-11-21T01:36:22;99776.44;;;7.69;100.00
79639;BME280;69114;49.108;8.280;2023-11-21T01:38:47;99787.50;;;7.69;100.00
79639;BME280;69114;49.108;8.280;2023-11-21T01:41:15;99785.25;;;7.72;100.00
79639;BME280;69114;49.108;8.280;2023-11-21T01:43:41;99788.53;;;7.74;100.00
79639;BME280;69114;49.108;8.280;2023-11-21T01:46:08;99779.69;;;7.72;100.00
79639;BME280;69114;49.108;8.280;2023-11-21T01:48:34;99781.66;;;7.71;100.00
79639;BME280;69114;49.108;8.280;2023-11-21T01:51:00;99776.53;;;7.64;100.00
79639;BME280;69114;49.108;8.280;2023-11-21T01:53:26;99771.59;;;7.61;100.00
79639;BME280;69114;49.108;8.280;2023-11-21T01:55:51;99768.91;;;7.56;100.00
79639;BME280;69114;49.108;8.280;2023-11-21T01:58:19;99772.91;;;7.50;100.00
79639;BME280;69114;49.108;8.280;2023-11-21T02:00:45;99776.69;;;7.54;100.00
79639;BME280;69114;49.108;8.280;2023-11-21T02:03:10;99775.59;;;7.55;100.00
79639;BME280;69114;49.108;8.280;2023-11-21T02:05:36;99774.75;;;7.55;100.00
79639;BME280;69114;49.108;8.280;2023-11-21T02:08:01;99770.34;;;7.54;100.00
79639;BME280;69114;49.108;8.280;2023-11-21T02:10:28;99779.47;;;7.54;100.00
79639;BME280;69114;49.108;8.280;2023-11-21T02:12:54;99778.88;;;7.57;100.00
79639;BME280;69114;49.108;8.280;2023-11-21T02:15:21;99776.59;;;7.59;100.00
79639;BME280;69114;49.108;8.280;2023-11-21T02:17:48;99778.25;;;7.60;100.00
79639;BME280;69114;49.108;8.280;2023-11-21T02:20:17;99783.81;;;7.60;100.00
79639;BME280;69114;49.108;8.280;2023-11-21T02:22:49;99780.22;;;7.60;100.00
79639;BME280;69114;49.108;8.280;2023-11-21T02:25:14;99776.59;;;7.59;100.00
79639;BME280;69114;49.108;8.280;2023-11-21T02:27:39;99775.78;;;7.59;100.00
79639;BME280;69114;49.108;8.280;2023-11-21T02:30:05;99771.28;;;7.63;100.00
79639;BME280;69114;49.108;8.280;2023-11-21T02:32:32;99775.78;;;7.59;100.00
79639;BME280;69114;49.108;8.280;2023-11-21T02:34:58;99777.44;;;7.60;100.00
79639;BME280;69114;49.108;8.280;2023-11-21T02:37:26;99775.19;;;7.62;100.00
79639;BME280;69114;49.108;8.280;2023-11-21T02:39:51;99773.53;;;7.61;100.00
79639;BME280;69114;49.108;8.280;2023-11-21T02:42:17;99767.69;;;7.62;100.00
79639;BME280;69114;49.108;8.280;2023-11-21T02:44:43;99766.34;;;7.60;100.00
79639;BME280;69114;49.108;8.280;2023-11-21T02:47:08;99765.50;;;7.59;100.00
79639;BME280;69114;49.108;8.280;2023-11-21T02:49:34;99767.19;;;7.60;100.00
79639;BME280;69114;49.108;8.280;2023-11-21T02:52:01;99761.41;;;7.57;100.00
79639;BME280;69114;49.108;8.280;2023-11-21T02:54:26;99763.06;;;7.58;100.00
79639;BME280;69114;49.108;8.280;2023-11-21T02:56:52;99772.19;;;7.58;100.00
79639;BME280;69114;49.108;8.280;2023-11-21T02:59:18;99767.19;;;7.60;100.00
79639;BME280;69114;49.108;8.280;2023-11-21T03:01:44;99763.88;;;7.58;100.00
79639;BME280;69114;49.108;8.280;2023-11-21T03:04:10;99767.19;;;7.60;100.00
79639;BME280;69114;49.108;8.280;2023-11-21T03:06:36;99758.34;;;7.58;100.00
79639;BME280;69114;49.108;8.280;2023-11-21T03:09:01;99766.97;;;7.57;100.00
79639;BME280;69114;49.108;8.280;2023-11-21T03:11:26;99765.81;;;7.58;100.00
79639;BME280;69114;49.108;8.280;2023-11-21T03:13:52;99766.03;;;7.61;100.00
79639;BME280;69114;49.108;8.280;2023-11-21T03:16:18;99768.00;;;7.61;100.00
79639;BME280;69114;49.108;8.280;2023-11-21T03:18:44;99769.94;;;7.60;100.00
79639;BME280;69114;49.108;8.280;2023-11-21T03:21:09;99766.75;;;7.67;100.00
79639;BME280;69114;49.108;8.280;2023-11-21T03:23:35;99770.44;;;7.62;100.00
79639;BME280;69114;49.108;8.280;2023-11-21T03:26:01;99769.94;;;7.60;100.00
79639;BME280;69114;49.108;8.280;2023-11-21T03:28:26;99769.41;;;7.58;100.00
79639;BME280;69114;49.108;8.280;2023-11-21T03:30:53;99758.88;;;7.60;100.00
79639;BME280;69114;49.108;8.280;2023-11-21T03:33:18;99768.59;;;7.58;100.00
79639;BME280;69114;49.108;8.280;2023-11-21T03:35:43;99764.69;;;7.59;100.00
79639;BME280;69114;49.108;8.280;2023-11-21T03:38:10;99768.09;;;7.56;100.00
79639;BME280;69114;49.108;8.280;2023-11-21T03:40:35;99775.59;;;7.55;100.00
79639;BME280;69114;49.108;8.280;2023-11-21T03:43:01;99762.03;;;7.54;100.00
79639;BME280;69114;49.108;8.280;2023-11-21T03:45:26;99772.28;;;7.53;100.00
79639;BME280;69114;49.108;8.280;2023-11-21T03:47:52;99766.75;;;7.53;100.00
79639;BME280;69114;49.108;8.280;2023-11-21T03:50:17;99766.75;;;7.53;100.00
79639;BME280;69114;49.108;8.280;2023-11-21T03:52:42;99766.75;;;7.53;100.00
79639;BME280;69114;49.108;8.280;2023-11-21T03:55:08;99773.91;;;7.54;100.00
79639;BME280;69114;49.108;8.280;2023-11-21T03:57:34;99777.59;;;7.50;100.00
79639;BME280;69114;49.108;8.280;2023-11-21T03:59:59;99776.78;;;7.49;100.00
79639;BME280;69114;49.108;8.280;2023-11-21T04:02:24;99775.16;;;7.48;100.00
79639;BME280;69114;49.108;8.280;2023-11-21T04:04:51;99777.09;;;7.48;100.00
79639;BME280;69114;49.108;8.280;2023-11-21T04:07:17;99782.34;;;7.49;100.00
79639;BME280;69114;49.108;8.280;2023-11-21T04:09:42;99786.25;;;7.48;100.00
79639;BME280;69114;49.108;8.280;2023-11-21T04:12:08;99790.16;;;7.47;100.00
79639;BME280;69114;49.108;8.280;2023-11-21T04:14:37;99790.97;;;7.48;100.00
79639;BME280;69114;49.108;8.280;2023-11-21T04:17:03;99801.22;;;7.47;100.00
79639;BME280;69114;49.108;8.280;2023-11-21T04:19:29;99801.22;;;7.47;100.00
79639;BME280;69114;49.108;8.280;2023-11-21T04:21:55;99807.00;;;7.51;100.00
79639;BME280;69114;49.108;8.280;2023-11-21T04:24:20;99801.22;;;7.47;100.00
79639;BME280;69114;49.108;8.280;2023-11-21T04:26:45;99810.03;;;7.49;100.00
79639;BME280;69114;49.108;8.280;2023-11-21T04:29:11;99811.72;;;7.50;100.00
79639;BME280;69114;49.108;8.280;2023-11-21T04:31:37;99808.72;;;7.47;100.00
79639;BME280;69114;49.108;8.280;2023-11-21T04:34:02;99816.22;;;7.46;100.00
79639;BME280;69114;49.108;8.280;2023-11-21T04:36:29;99812.91;;;7.44;100.00
79639;BME280;69114;49.108;8.280;2023-11-21T04:38:56;99805.94;;;7.47;100.00
79639;BME280;69114;49.108;8.280;2023-11-21T04:41:21;99810.88;;;7.50;100.00
79639;BME280;69114;49.108;8.280;2023-11-21T04:43:46;99810.88;;;7.50;100.00
79639;BME280;69114;49.108;8.280;2023-11-21T04:46:11;99819.19;;;7.50;100.00
79639;BME280;69114;49.108;8.280;2023-11-21T04:48:37;99812.31;;;7.47;100.00
79639;BME280;69114;49.108;8.280;2023-11-21T04:51:02;99812.31;;;7.47;100.00
79639;BME280;69114;49.108;8.280;2023-11-21T04:53:29;99822.84;;;7.45;100.00
79639;BME280;69114;49.108;8.280;2023-11-21T04:55:54;99824.00;;;7.44;100.00
79639;BME280;69114;49.108;8.280;2023-11-21T04:58:20;99818.44;;;7.44;100.00
79639;BME280;69114;49.108;8.280;2023-11-21T05:00:45;99817.13;;;7.41;100.00
79639;BME280;69114;49.108;8.280;2023-11-21T05:03:11;99829.31;;;7.40;100.00
79639;BME280;69114;49.108;8.280;2023-11-21T05:05:37;99832.94;;;7.41;100.00
79639;BME280;69114;49.108;8.280;2023-11-21T05:08:03;99832.41;;;7.39;100.00
79639;BME280;69114;49.108;8.280;2023-11-21T05:10:29;99823.25;;;7.38;100.00
79639;BME280;69114;49.108;8.280;2023-11-21T05:12:55;99829.72;;;7.34;100.00
79639;BME280;69114;49.108;8.280;2023-11-21T05:15:20;99826.44;;;7.32;100.00
79639;BME280;69114;49.108;8.280;2023-11-21T05:17:46;99826.72;;;7.30;100.00
79639;BME280;69114;49.108;8.280;2023-11-21T05:20:15;99831.97;;;7.32;100.00
79639;BME280;69114;49.108;8.280;2023-11-21T05:22:47;99837.53;;;7.32;100.00
79639;BME280;69114;49.108;8.280;2023-11-21T05:25:13;99833.06;;;7.31;100.00
79639;BME280;69114;49.108;8.280;2023-11-21T05:27:38;99835.84;;;7.31;100.00
79639;BME280;69114;49.108;8.280;2023-11-21T05:30:05;99844.69;;;7.33;100.00
79639;BME280;69114;49.108;8.280;2023-11-21T05:32:34;99843.25;;;7.35;100.00
79639;BME280;69114;49.108;8.280;2023-11-21T05:34:59;99853.00;;;7.33;100.00
79639;BME280;69114;49.108;8.280;2023-11-21T05:37:24;99854.66;;;7.34;100.00
79639;BME280;69114;49.108;8.280;2023-11-21T05:39:52;99850.56;;;7.31;100.00
79639;BME280;69114;49.108;8.280;2023-11-21T05:42:18;99853.31;;;7.31;100.00
79639;BME280;69114;49.108;8.280;2023-11-21T05:44:43;99858.00;;;7.31;100.00
79639;BME280;69114;49.108;8.280;2023-11-21T05:47:09;99858.00;;;7.31;100.00
79639;BME280;69114;49.108;8.280;2023-11-21T05:49:35;99866.03;;;7.32;100.00
79639;BME280;69114;49.108;8.280;2023-11-21T05:52:00;99870.75;;;7.32;100.00
79639;BME280;69114;49.108;8.280;2023-11-21T05:54:26;99877.84;;;7.38;100.00
79639;BME280;69114;49.108;8.280;2023-11-21T05:56:51;99873.44;;;7.37;100.00
79639;BME280;69114;49.108;8.280;2023-11-21T05:59:17;99878.16;;;7.36;100.00
79639;BME280;69114;49.108;8.280;2023-11-21T06:01:42;99877.34;;;7.36;100.00
79639;BME280;69114;49.108;8.280;2023-11-21T06:04:07;99871.81;;;7.36;100.00
79639;BME280;69114;49.108;8.280;2023-11-21T06:06:35;99884.81;;;7.35;100.00
79639;BME280;69114;49.108;8.280;2023-11-21T06:09:01;99895.63;;;7.37;100.00
79639;BME280;69114;49.108;8.280;2023-11-21T06:11:27;99883.91;;;7.40;100.00
79639;BME280;69114;49.108;8.280;2023-11-21T06:13:52;99883.81;;;7.45;100.00
79639;BME280;69114;49.108;8.280;2023-11-21T06:16:18;99887.31;;;7.37;100.00
79639;BME280;69114;49.108;8.280;2023-11-21T06:18:45;99885.03;;;7.39;100.00
79639;BME280;69114;49.108;8.280;2023-11-21T06:21:11;99893.13;;;7.35;100.00
79639;BME280;69114;49.108;8.280;2023-11-21T06:23:36;99891.41;;;7.39;100.00
79639;BME280;69114;49.108;8.280;2023-11-21T06:26:02;99899.50;;;7.36;100.00
79639;BME280;69114;49.108;8.280;2023-11-21T06:28:27;99901.97;;;7.37;100.00
79639;BME280;69114;49.108;8.280;2023-11-21T06:30:52;99895.63;;;7.37;100.00
79639;BME280;69114;49.108;8.280;2023-11-21T06:33:18;99905.88;;;7.36;100.00
79639;BME280;69114;49.108;8.280;2023-11-21T06:35:44;99901.97;;;7.37;100.00
79639;BME280;69114;49.108;8.280;2023-11-21T06:38:10;99913.97;;;7.33;100.00
79639;BME280;69114;49.108;8.280;2023-11-21T06:40:35;99915.59;;;7.34;100.00
79639;BME280;69114;49.108;8.280;2023-11-21T06:43:01;99920.00;;;7.35;100.00
79639;BME280;69114;49.108;8.280;2023-11-21T06:45:26;99922.50;;;7.36;100.00
79639;BME280;69114;49.108;8.280;2023-11-21T06:47:51;99926.38;;;7.35;100.00
79639;BME280;69114;49.108;8.280;2023-11-21T06:50:17;99924.13;;;7.37;100.00
79639;BME280;69114;49.108;8.280;2023-11-21T06:52:42;99933.78;;;7.40;100.00
79639;BME280;69114;49.108;8.280;2023-11-21T06:55:08;99938.31;;;7.36;100.00
79639;BME280;69114;49.108;8.280;2023-11-21T06:57:35;99940.16;;;7.40;100.00
79639;BME280;69114;49.108;8.280;2023-11-21T07:00:00;99939.88;;;7.42;100.00
79639;BME280;69114;49.108;8.280;2023-11-21T07:02:25;99940.75;;;7.37;100.00
79639;BME280;69114;49.108;8.280;2023-11-21T07:04:51;99948.75;;;7.58;100.00
79639;BME280;69114;49.108;8.280;2023-11-21T07:07:16;99952.06;;;7.60;100.00
79639;BME280;69114;49.108;8.280;2023-11-21T07:09:41;99958.44;;;7.60;100.00
79639;BME280;69114;49.108;8.280;2023-11-21T07:12:07;99964.47;;;7.62;100.00
79639;BME280;69114;49.108;8.280;2023-11-21T07:14:35;99962.66;;;7.72;100.00
79639;BME280;69114;49.108;8.280;2023-11-21T07:17:02;99964.53;;;7.76;100.00
79639;BME280;69114;49.108;8.280;2023-11-21T07:19:27;99974.88;;;7.70;100.00
79639;BME280;69114;49.108;8.280;2023-11-21T07:21:53;99981.75;;;7.73;100.00
79639;BME280;69114;49.108;8.280;2023-11-21T07:24:18;99988.66;;;7.76;100.00
79639;BME280;69114;49.108;8.280;2023-11-21T07:26:43;99988.66;;;7.76;100.00
79639;BME280;69114;49.108;8.280;2023-11-21T07:29:09;99996.97;;;7.76;100.00
79639;BME280;69114;49.108;8.280;2023-11-21T07:31:36;100002.84;;;7.74;100.00
79639;BME280;69114;49.108;8.280;2023-11-21T07:34:02;100007.16;;;7.80;100.00
79639;BME280;69114;49.108;8.280;2023-11-21T07:36:27;100005.22;;;7.81;100.00
79639;BME280;69114;49.108;8.280;2023-11-21T07:38:53;100009.03;;;7.85;100.00
79639;BME280;69114;49.108;8.280;2023-11-21T07:41:19;100006.78;;;7.87;100.00
79639;BME280;69114;49.108;8.280;2023-11-21T07:43:45;100009.47;;;7.92;100.00
79639;BME280;69114;49.108;8.280;2023-11-21T07:46:11;100009.38;;;7.97;100.00
79639;BME280;69114;49.108;8.280;2023-11-21T07:48:40;100011.03;;;7.98;100.00
79639;BME280;69114;49.108;8.280;2023-11-21T07:51:07;100006.44;;;8.07;100.00
79639;BME280;69114;49.108;8.280;2023-11-21T07:53:34;100005.22;;;8.13;100.00
79639;BME280;69114;49.108;8.280;2023-11-21T07:56:04;100012.09;;;8.16;100.00
79639;BME280;69114;49.108;8.280;2023-11-21T07:58:29;100007.91;;;8.18;100.00
79639;BME280;69114;49.108;8.280;2023-11-21T08:00:55;100015.69;;;8.16;100.00
79639;BME280;69114;49.108;8.280;2023-11-21T08:03:20;100015.63;;;8.21;100.00
79639;BME280;69114;49.108;8.280;2023-11-21T08:05:46;100020.06;;;8.23;100.00
79639;BME280;69114;49.108;8.280;2023-11-21T08:08:11;100020.56;;;8.25;100.00
79639;BME280;69114;49.108;8.280;2023-11-21T08:10:37;100019.41;;;8.26;100.00
79639;BME280;69114;49.108;8.280;2023-11-21T08:13:02;100023.06;;;8.26;100.00
79639;BME280;69114;49.108;8.280;2023-11-21T08:15:29;100026.94;;;8.25;100.00
79639;BME280;69114;49.108;8.280;2023-11-21T08:17:54;100030.84;;;8.24;100.00
79639;BME280;69114;49.108;8.280;2023-11-21T08:20:19;100035.56;;;8.24;100.00
79639;BME280;69114;49.108;8.280;2023-11-21T08:22:45;100033.09;;;8.22;100.00
79639;BME280;69114;49.108;8.280;2023-11-21T08:25:12;100031.66;;;8.25;100.00
79639;BME280;69114;49.108;8.280;2023-11-21T08:27:38;100037.22;;;8.25;100.00
79639;BME280;69114;49.108;8.280;2023-11-21T08:30:04;100044.94;;;8.28;100.00
79639;BME280;69114;49.108;8.280;2023-11-21T08:32:29;100050.47;;;8.28;100.00
79639;BME280;69114;49.108;8.280;2023-11-21T08:34:57;100055.13;;;8.32;100.00
79639;BME280;69114;49.108;8.280;2023-11-21T08:37:22;100065.41;;;8.32;100.00
79639;BME280;69114;49.108;8.280;2023-11-21T08:39:49;100069.91;;;8.28;100.00
79639;BME280;69114;49.108;8.280;2023-11-21T08:42:14;100065.19;;;8.28;100.00
79639;BME280;69114;49.108;8.280;2023-11-21T08:44:40;100064.34;;;8.28;100.00
79639;BME280;69114;49.108;8.280;2023-11-21T08:47:06;100065.25;;;8.23;100.00
79639;BME280;69114;49.108;8.280;2023-11-21T08:49:31;100072.22;;;8.20;100.00
79639;BME280;69114;49.108;8.280;2023-11-21T08:51:57;100071.72;;;8.18;100.00
79639;BME280;69114;49.108;8.280;2023-11-21T08:54:24;100082.00;;;8.18;100.00
79639;BME280;69114;49.108;8.280;2023-11-21T08:56:51;100078.00;;;8.24;100.00
79639;BME280;69114;49.108;8.280;2023-11-21T08:59:16;100076.38;;;8.23;100.00
79639;BME280;69114;49.108;8.280;2023-11-21T09:01:41;100078.53;;;8.26;100.00
79639;BME280;69114;49.108;8.280;2023-11-21T09:04:07;100077.09;;;8.29;100.00
79639;BME280;69114;49.108;8.280;2023-11-21T09:06:32;100081.75;;;8.33;100.00
79639;BME280;69114;49.108;8.280;2023-11-21T09:08:57;100082.56;;;8.34;100.00
79639;BME280;69114;49.108;8.280;2023-11-21T09:11:23;100077.81;;;8.34;100.00
79639;BME280;69114;49.108;8.280;2023-11-21T09:13:50;100089.75;;;8.35;100.00
79639;BME280;69114;49.108;8.280;2023-11-21T09:16:16;100083.69;;;8.33;100.00
79639;BME280;69114;49.108;8.280;2023-11-21T09:18:42;100093.66;;;8.34;100.00
79639;BME280;69114;49.108;8.280;2023-11-21T09:21:07;100091.13;;;8.37;100.00
79639;BME280;69114;49.108;8.280;2023-11-21T09:23:33;100096.91;;;8.41;100.00
79639;BME280;69114;49.108;8.280;2023-11-21T09:25:59;100094.06;;;8.46;100.00
79639;BME280;69114;49.108;8.280;2023-11-21T09:28:26;100102.88;;;8.48;100.00
79639;BME280;69114;49.108;8.280;2023-11-21T09:30:52;100096.50;;;8.48;100.00
79639;BME280;69114;49.108;8.280;2023-11-21T09:33:18;100100.78;;;8.40;100.00
79639;BME280;69114;49.108;8.280;2023-11-21T09:35:43;100111.31;;;8.43;100.00
79639;BME280;69114;49.108;8.280;2023-11-21T09:38:09;100120.38;;;8.49;100.00
79639;BME280;69114;49.108;8.280;2023-11-21T09:40:36;100116.75;;;8.48;100.00
79639;BME280;69114;49.108;8.280;2023-11-21T09:43:06;100126.31;;;8.42;100.00
79639;BME280;69114;49.108;8.280;2023-11-21T09:45:38;100130.72;;;8.43;100.00
79639;BME280;69114;49.108;8.280;2023-11-21T09:48:04;100127.94;;;8.43;100.00
79639;BME280;69114;49.108;8.280;2023-11-21T09:50:32;100127.94;;;8.43;100.00
79639;BME280;69114;49.108;8.280;2023-11-21T09:53:16;100127.56;;;8.50;100.00
79639;BME280;69114;49.108;8.280;2023-11-21T09:55:44;100139.50;;;8.50;100.00
79639;BME280;69114;49.108;8.280;2023-11-21T09:58:10;100134.16;;;8.54;100.00
79639;BME280;69114;49.108;8.280;2023-11-21T10:00:48;100137.97;;;8.58;100.00
79639;BME280;69114;49.108;8.280;2023-11-21T10:03:14;100138.28;;;8.56;100.00
79639;BME280;69114;49.108;8.280;2023-11-21T10:05:42;100137.06;;;8.62;100.00
79639;BME280;69114;49.108;8.280;2023-11-21T10:08:09;100145.41;;;8.62;100.00
79639;BME280;69114;49.108;8.280;2023-11-21T10:10:42;100135.41;;;8.61;100.00
79639;BME280;69114;49.108;8.280;2023-11-21T10:13:11;100138.50;;;8.60;100.00
79639;BME280;69114;49.108;8.280;2023-11-21T10:15:37;100143.84;;;8.56;100.00
79639;BME280;69114;49.108;8.280;2023-11-21T10:18:04;100145.88;;;8.51;100.00
79639;BME280;69114;49.108;8.280;2023-11-21T10:20:32;100147.91;;;8.45;100.00
79639;BME280;69114;49.108;8.280;2023-11-21T10:22:59;100146.06;;;8.40;100.00
79639;BME280;69114;49.108;8.280;2023-11-21T10:25:27;100146.66;;;8.37;100.00
79639;BME280;69114;49.108;8.280;2023-11-21T10:27:58;100146.56;;;8.42;100.00
79639;BME280;69114;49.108;8.280;2023-11-21T10:30:28;100144.59;;;8.43;100.00
79639;BME280;69114;49.108;8.280;2023-11-21T10:33:00;100148.59;;;8.37;100.00
79639;BME280;69114;49.108;8.280;2023-11-21T10:35:39;100146.88;;;8.22;100.00
79639;BME280;69114;49.108;8.280;2023-11-21T10:38:05;100158.03;;;8.17;100.00
79639;BME280;69114;49.108;8.280;2023-11-21T10:40:31;100155.53;;;8.15;100.00
79639;BME280;69114;49.108;8.280;2023-11-21T10:43:06;100155.53;;;8.15;100.00
79639;BME280;69114;49.108;8.280;2023-11-21T10:45:31;100162.22;;;8.14;100.00
79639;BME280;69114;49.108;8.280;2023-11-21T10:47:56;100161.31;;;8.19;100.00
79639;BME280;69114;49.108;8.280;2023-11-21T10:50:23;100165.16;;;8.23;100.00
79639;BME280;69114;49.108;8.280;2023-11-21T10:52:49;100165.97;;;8.24;100.00
79639;BME280;69114;49.108;8.280;2023-11-21T10:55:18;100168.75;;;8.24;100.00
79639;BME280;69114;49.108;8.280;2023-11-21T10:57:48;100167.94;;;8.23;100.00
79639;BME280;69114;49.108;8.280;2023-11-21T11:00:16;100162.59;;;8.27;100.00
79639;BME280;69114;49.108;8.280;2023-11-21T11:02:41;100162.53;;;8.32;100.00
79639;BME280;69114;49.108;8.280;2023-11-21T11:05:07;100167.72;;;8.38;100.00
79639;BME280;69114;49.108;8.280;2023-11-21T11:07:37;100175.66;;;8.45;100.00
79639;BME280;69114;49.108;8.280;2023-11-21T11:10:06;100188.34;;;8.51;100.00
79639;BME280;69114;49.108;8.280;2023-11-21T11:12:34;100177.53;;;8.50;100.00
79639;BME280;69114;49.108;8.280;2023-11-21T11:15:01;100185.25;;;8.53;100.00
79639;BME280;69114;49.108;8.280;2023-11-21T11:17:28;100179.84;;;8.61;100.00
79639;BME280;69114;49.108;8.280;2023-11-21T11:19:53;100184.34;;;8.57;100.00
79639;BME280;69114;49.108;8.280;2023-11-21T11:22:57;100180.25;;;8.55;100.00
79639;BME280;69114;49.108;8.280;2023-11-21T11:28:04;100180.97;;;8.60;100.00
79639;BME280;69114;49.108;8.280;2023-11-21T11:36:10;100185.03;;;8.49;100.00
79639;BME280;69114;49.108;8.280;2023-11-21T11:38:38;100178.97;;;8.47;100.00
79639;BME280;69114;49.108;8.280;2023-11-21T11:41:07;100189.75;;;8.49;100.00
79639;BME280;69114;49.108;8.280;2023-11-21T11:43:34;100186.63;;;8.55;100.00
79639;BME280;69114;49.108;8.280;2023-11-21T11:46:10;100180.44;;;8.58;100.00
79639;BME280;69114;49.108;8.280;2023-11-21T11:48:39;100185.31;;;8.66;100.00
79639;BME280;69114;49.108;8.280;2023-11-21T11:51:14;100193.03;;;8.69;100.00
79639;BME280;69114;49.108;8.280;2023-11-21T11:53:43;100184.19;;;8.67;100.00
79639;BME280;69114;49.108;8.280;2023-11-21T11:56:24;100175.03;;;8.67;100.00
79639;BME280;69114;49.108;8.280;2023-11-21T11:59:01;100188.09;;;8.66;100.00
79639;BME280;69114;49.108;8.280;2023-11-21T12:01:33;100182.84;;;8.65;100.00
79639;BME280;69114;49.108;8.280;2023-11-21T12:06:41;100192.97;;;8.75;100.00
79639;BME280;69114;49.108;8.280;2023-11-21T12:09:06;100193.31;;;8.68;100.00
79639;BME280;69114;49.108;8.280;2023-11-21T12:11:32;100193.63;;;8.66;100.00
79639;BME280;69114;49.108;8.280;2023-11-21T12:13:58;100194.69;;;8.70;100.00
79639;BME280;69114;49.108;8.280;2023-11-21T12:16:25;100189.56;;;8.78;100.00
79639;BME280;69114;49.108;8.280;2023-11-21T12:18:53;100196.16;;;8.82;100.00
79639;BME280;69114;49.108;8.280;2023-11-21T12:21:19;100209.34;;;8.90;100.00
79639;BME280;69114;49.108;8.280;2023-11-21T12:23:45;100205.84;;;8.84;100.00
79639;BME280;69114;49.108;8.280;2023-11-21T12:26:13;100198.75;;;8.92;100.00
79639;BME280;69114;49.108;8.280;2023-11-21T12:28:39;100209.34;;;8.90;100.00
79639;BME280;69114;49.108;8.280;2023-11-21T12:31:05;100202.97;;;8.89;100.00
79639;BME280;69114;49.108;8.280;2023-11-21T12:33:32;100202.44;;;8.87;100.00
79639;BME280;69114;49.108;8.280;2023-11-21T12:35:58;100205.25;;;9.01;100.00
79639;BME280;69114;49.108;8.280;2023-11-21T12:38:24;100210.19;;;8.90;100.00
79639;BME280;69114;49.108;8.280;2023-11-21T12:40:50;100210.00;;;9.01;100.00
79639;BME280;69114;49.108;8.280;2023-11-21T12:43:17;100213.00;;;9.04;100.00
79639;BME280;69114;49.108;8.280;2023-11-21T12:45:43;100213.50;;;9.06;100.00
79639;BME280;69114;49.108;8.280;2023-11-21T12:48:09;100211.47;;;9.12;100.00
79639;BME280;69114;49.108;8.280;2023-11-21T12:50:37;100213.34;;;9.16;100.00
79639;BME280;69114;49.108;8.280;2023-11-21T12:53:07;100214.03;;;9.08;100.00
79639;BME280;69114;49.108;8.280;2023-11-21T12:55:35;100217.31;;;9.10;100.00
79639;BME280;69114;49.108;8.280;2023-11-21T12:58:04;100219.06;;;9.06;100.00
79639;BME280;69114;49.108;8.280;2023-11-21T13:00:42;100222.78;;;9.15;100.00
79639;BME280;69114;49.108;8.280;2023-11-21T13:03:09;100225.06;;;9.13;100.00